createdAt,value
2023-04-24T00:00:31.221Z,10.40
2023-04-24T00:03:03.700Z,10.50
2023-04-24T00:05:33.828Z,10.50
2023-04-24T00:08:04.084Z,10.60
2023-04-24T00:10:32.401Z,10.60
2023-04-24T00:13:00.817Z,10.60
2023-04-24T00:15:29.011Z,10.60
2023-04-24T00:17:57.239Z,10.60
2023-04-24T00:20:26.669Z,10.60
2023-04-24T00:22:54.958Z,10.60
2023-04-24T00:25:23.064Z,10.60
2023-04-24T00:27:51.377Z,10.60
2023-04-24T00:30:19.672Z,10.50
2023-04-24T00:32:48.190Z,10.50
2023-04-24T00:35:16.629Z,10.50
2023-04-24T00:37:46.464Z,10.40
2023-04-24T00:40:14.742Z,10.40
2023-04-24T00:42:45.156Z,10.50
2023-04-24T00:45:14.382Z,10.50
2023-04-24T00:47:44.166Z,10.50
2023-04-24T00:50:14.538Z,10.50
2023-04-24T00:52:44.182Z,10.50
2023-04-24T00:55:13.716Z,10.40
2023-04-24T00:57:43.136Z,10.40
2023-04-24T01:00:12.893Z,10.50
2023-04-24T01:02:45.322Z,10.40
2023-04-24T01:05:14.657Z,10.30
2023-04-24T01:07:46.552Z,10.30
2023-04-24T01:10:18.152Z,10.20
2023-04-24T01:12:47.549Z,10.10
2023-04-24T01:15:16.474Z,10.00
2023-04-24T01:17:44.679Z,9.90
2023-04-24T01:20:12.913Z,9.90
2023-04-24T01:22:44.517Z,9.90
2023-04-24T01:25:12.712Z,9.90
2023-04-24T01:27:40.819Z,9.90
2023-04-24T01:30:10.652Z,9.90
2023-04-24T01:32:39.652Z,10.00
2023-04-24T01:35:09.495Z,10.00
2023-04-24T01:37:38.402Z,10.00
2023-04-24T01:40:09.871Z,10.00
2023-04-24T01:42:38.307Z,10.00
2023-04-24T01:45:08.073Z,10.00
2023-04-24T01:47:36.673Z,10.00
2023-04-24T01:50:05.412Z,10.00
2023-04-24T01:52:34.329Z,10.00
2023-04-24T01:55:02.995Z,10.00
2023-04-24T01:57:33.058Z,10.00
2023-04-24T02:00:01.376Z,10.00
2023-04-24T02:02:31.164Z,10.00
2023-04-24T02:04:59.982Z,10.00
2023-04-24T02:07:28.205Z,10.00
2023-04-24T02:09:56.600Z,10.00
2023-04-24T02:12:24.841Z,9.90
2023-04-24T02:14:54.797Z,10.00
2023-04-24T02:17:23.595Z,10.00
2023-04-24T02:19:52.002Z,10.10
2023-04-24T02:22:20.169Z,10.10
2023-04-24T02:24:48.315Z,10.20
2023-04-24T02:27:17.765Z,10.20
2023-04-24T02:29:46.120Z,10.20
2023-04-24T02:32:16.881Z,10.30
2023-04-24T02:34:47.397Z,10.30
2023-04-24T02:37:15.783Z,10.30
2023-04-24T02:39:45.393Z,10.30
2023-04-24T02:42:13.844Z,10.30
2023-04-24T02:44:42.039Z,10.30
2023-04-24T02:47:10.070Z,10.30
2023-04-24T02:49:43.276Z,10.30
2023-04-24T02:52:12.584Z,10.30
2023-04-24T02:54:40.817Z,10.30
2023-04-24T02:57:08.851Z,10.30
2023-04-24T02:59:40.453Z,10.40
2023-04-24T03:02:08.917Z,10.40
2023-04-24T03:04:37.620Z,10.40
2023-04-24T03:07:07.775Z,10.40
2023-04-24T03:09:36.132Z,10.40
2023-04-24T03:12:04.422Z,10.40
2023-04-24T03:14:32.800Z,10.50
2023-04-24T03:17:01.524Z,10.50
2023-04-24T03:19:29.906Z,10.50
2023-04-24T03:22:04.922Z,10.50
2023-04-24T03:24:34.907Z,10.50
2023-04-24T03:27:03.433Z,10.50
2023-04-24T03:29:52.700Z,10.50
2023-04-24T03:32:21.400Z,10.60
2023-04-24T03:34:50.901Z,10.60
2023-04-24T03:37:19.058Z,10.60
2023-04-24T03:39:57.353Z,10.60
2023-04-24T03:42:27.015Z,10.60
2023-04-24T03:44:57.766Z,10.60
2023-04-24T03:47:31.249Z,10.60
2023-04-24T03:50:03.096Z,10.60
2023-04-24T03:52:32.642Z,10.60
2023-04-24T03:55:02.357Z,10.70
2023-04-24T03:57:32.694Z,10.60
2023-04-24T04:00:13.365Z,10.70
2023-04-24T04:02:47.904Z,10.70
2023-04-24T04:05:16.428Z,10.70
2023-04-24T04:07:44.665Z,10.70
2023-04-24T04:10:14.571Z,10.70
2023-04-24T04:12:42.809Z,10.70
2023-04-24T04:15:11.598Z,10.70
2023-04-24T04:17:40.205Z,10.70
2023-04-24T04:20:11.793Z,10.70
2023-04-24T04:22:44.158Z,10.70
2023-04-24T04:25:17.004Z,10.70
2023-04-24T04:27:45.214Z,10.70
2023-04-24T04:30:15.511Z,10.70
2023-04-24T04:32:51.319Z,10.70
2023-04-24T04:35:22.959Z,10.70
2023-04-24T04:37:52.356Z,10.80
2023-04-24T04:40:41.161Z,10.80
2023-04-24T04:43:09.538Z,10.80
2023-04-24T04:45:45.876Z,10.80
2023-04-24T04:48:32.537Z,10.80
2023-04-24T04:51:02.659Z,10.80
2023-04-24T04:53:31.159Z,10.90
2023-04-24T04:56:00.923Z,10.90
2023-04-24T04:58:41.874Z,10.90
2023-04-24T05:01:13.704Z,10.90
2023-04-24T05:03:44.503Z,11.00
2023-04-24T05:06:16.185Z,11.00
2023-04-24T05:08:45.614Z,11.00
2023-04-24T05:11:26.018Z,11.00
2023-04-24T05:13:55.143Z,11.10
2023-04-24T05:16:33.782Z,11.10
2023-04-24T05:19:02.423Z,11.10
2023-04-24T05:21:35.933Z,11.10
2023-04-24T05:24:04.361Z,11.10
2023-04-24T05:29:44.808Z,11.20
2023-04-24T05:32:13.196Z,11.30
2023-04-24T05:37:48.420Z,11.30
2023-04-24T05:40:17.259Z,11.40
2023-04-24T05:42:46.683Z,11.40
2023-04-24T05:45:17.804Z,11.40
2023-04-24T05:47:46.302Z,11.40
2023-04-24T05:50:14.763Z,11.50
2023-04-24T05:52:43.000Z,11.60
2023-04-24T05:55:24.223Z,11.70
2023-04-24T05:57:54.454Z,11.80
2023-04-24T06:00:23.061Z,11.90
2023-04-24T06:06:01.367Z,12.00
2023-04-24T06:08:29.440Z,12.20
2023-04-24T06:10:58.187Z,12.20
2023-04-24T06:13:28.380Z,12.30
2023-04-24T06:16:16.575Z,12.30
2023-04-24T06:18:50.204Z,12.40
2023-04-24T06:21:18.851Z,12.40
2023-04-24T06:23:47.771Z,12.40
2023-04-24T06:26:16.874Z,12.40
2023-04-24T06:28:46.260Z,12.30
2023-04-24T06:31:14.410Z,12.30
2023-04-24T06:33:42.679Z,12.30
2023-04-24T06:36:11.578Z,12.30
2023-04-24T06:38:40.442Z,12.30
2023-04-24T06:41:08.648Z,12.40
2023-04-24T06:43:36.723Z,12.40
2023-04-24T06:46:06.409Z,12.50
2023-04-24T06:48:34.795Z,12.50
2023-04-24T06:51:02.908Z,12.60
2023-04-24T06:53:31.135Z,12.60
2023-04-24T06:55:59.341Z,12.60
2023-04-24T06:58:27.552Z,12.60
2023-04-24T07:00:55.702Z,12.60
2023-04-24T07:03:25.695Z,12.50
2023-04-24T07:05:54.545Z,12.50
2023-04-24T07:08:23.002Z,12.40
2023-04-24T07:10:51.858Z,12.40
2023-04-24T07:13:21.461Z,12.30
2023-04-24T07:15:51.960Z,12.20
2023-04-24T07:18:20.212Z,12.30
2023-04-24T07:20:51.224Z,12.40
2023-04-24T07:23:19.661Z,12.60
2023-04-24T07:25:47.980Z,12.60
2023-04-24T07:28:17.670Z,12.80
2023-04-24T07:30:46.037Z,12.80
2023-04-24T07:33:14.513Z,12.90
2023-04-24T07:35:42.590Z,13.00
2023-04-24T07:38:12.387Z,13.00
2023-04-24T07:40:40.718Z,13.10
2023-04-24T07:43:08.724Z,13.20
2023-04-24T07:45:38.510Z,13.20
2023-04-24T07:48:07.186Z,13.30
2023-04-24T07:50:35.746Z,13.20
2023-04-24T07:53:03.958Z,13.20
2023-04-24T07:55:33.662Z,13.30
2023-04-24T07:58:01.657Z,13.20
2023-04-24T08:00:29.697Z,13.20
2023-04-24T08:02:58.130Z,13.30
2023-04-24T08:05:28.432Z,13.20
2023-04-24T08:07:57.231Z,13.20
2023-04-24T08:10:25.633Z,13.10
2023-04-24T08:12:57.361Z,13.10
2023-04-24T08:15:25.820Z,13.00
2023-04-24T08:17:58.926Z,13.10
2023-04-24T08:20:28.579Z,13.00
2023-04-24T08:22:57.568Z,12.90
2023-04-24T08:25:25.950Z,12.90
2023-04-24T08:27:55.537Z,12.90
2023-04-24T08:30:24.243Z,13.00
2023-04-24T08:32:52.368Z,13.20
2023-04-24T08:35:20.759Z,13.20
2023-04-24T08:37:48.819Z,13.30
2023-04-24T08:40:18.634Z,13.30
2023-04-24T08:42:47.436Z,13.50
2023-04-24T08:45:17.334Z,13.70
2023-04-24T08:47:46.296Z,13.80
2023-04-24T08:50:14.541Z,13.90
2023-04-24T08:52:44.475Z,14.10
2023-04-24T08:55:12.636Z,14.30
2023-04-24T08:57:41.655Z,14.50
2023-04-24T09:00:12.230Z,14.70
2023-04-24T09:02:45.641Z,14.90
2023-04-24T09:05:16.062Z,15.10
2023-04-24T09:07:47.340Z,15.30
2023-04-24T09:10:16.032Z,15.50
2023-04-24T09:12:46.047Z,15.50
2023-04-24T09:15:14.324Z,15.40
2023-04-24T09:17:44.425Z,15.40
2023-04-24T09:20:14.863Z,15.20
2023-04-24T09:22:44.611Z,14.90
2023-04-24T09:25:13.545Z,14.80
2023-04-24T09:27:45.130Z,14.50
2023-04-24T09:30:14.226Z,14.30
2023-04-24T09:32:44.599Z,14.60
2023-04-24T09:35:14.156Z,15.10
2023-04-24T09:37:44.624Z,15.10
2023-04-24T09:40:18.644Z,14.80
2023-04-24T09:42:48.105Z,14.60
2023-04-24T09:45:16.419Z,14.40
2023-04-24T09:47:46.082Z,14.30
2023-04-24T09:50:16.889Z,14.10
2023-04-24T09:52:47.035Z,14.10
2023-04-24T09:55:19.597Z,14.10
2023-04-24T09:57:55.630Z,14.00
2023-04-24T10:00:28.659Z,13.90
2023-04-24T10:02:59.473Z,13.70
2023-04-24T10:05:30.168Z,13.60
2023-04-24T10:08:04.346Z,13.60
2023-04-24T10:10:32.550Z,13.50
2023-04-24T10:13:01.501Z,13.30
2023-04-24T10:15:29.690Z,13.20
2023-04-24T10:18:01.189Z,13.10
2023-04-24T10:20:31.598Z,13.00
2023-04-24T10:23:01.011Z,13.00
2023-04-24T10:25:30.705Z,12.90
2023-04-24T10:28:00.780Z,12.90
2023-04-24T10:30:30.201Z,12.80
2023-04-24T10:32:59.626Z,12.80
2023-04-24T10:35:27.959Z,12.80
2023-04-24T10:38:01.880Z,12.70
2023-04-24T10:40:33.813Z,12.50
2023-04-24T10:43:07.033Z,12.40
2023-04-24T10:45:35.739Z,12.40
2023-04-24T10:48:11.850Z,12.30
2023-04-24T10:50:48.016Z,12.30
2023-04-24T10:53:18.945Z,12.40
2023-04-24T10:55:49.051Z,12.40
2023-04-24T10:58:17.797Z,12.60
2023-04-24T11:00:46.824Z,12.70
2023-04-24T11:03:30.424Z,12.90
2023-04-24T11:06:00.958Z,13.00
2023-04-24T11:08:33.903Z,13.10
2023-04-24T11:11:05.340Z,13.10
2023-04-24T11:14:06.929Z,13.00
2023-04-24T11:16:36.885Z,13.10
2023-04-24T11:19:08.487Z,13.30
2023-04-24T11:21:44.489Z,13.50
2023-04-24T11:24:33.136Z,13.50
2023-04-24T11:27:08.129Z,13.60
2023-04-24T11:29:45.027Z,13.80
2023-04-24T11:32:20.898Z,13.70
2023-04-24T11:34:52.515Z,13.70
2023-04-24T11:37:20.757Z,13.60
2023-04-24T11:39:48.828Z,13.30
2023-04-24T11:42:17.918Z,13.10
2023-04-24T11:44:48.461Z,13.00
2023-04-24T11:47:16.490Z,12.90
2023-04-24T11:49:47.398Z,12.70
2023-04-24T11:52:19.517Z,12.60
2023-04-24T11:54:52.282Z,12.50
2023-04-24T11:57:23.650Z,12.30
2023-04-24T11:59:51.984Z,12.10
2023-04-24T12:02:25.278Z,12.00
2023-04-24T12:04:54.453Z,11.90
2023-04-24T12:07:25.558Z,11.80
2023-04-24T12:09:59.412Z,11.80
2023-04-24T12:12:28.937Z,11.60
2023-04-24T12:14:58.823Z,11.50
2023-04-24T12:17:29.366Z,11.50
2023-04-24T12:20:02.051Z,11.50
2023-04-24T12:22:46.727Z,11.60
2023-04-24T12:25:15.010Z,11.70
2023-04-24T12:27:43.270Z,11.80
2023-04-24T12:30:15.307Z,11.80
2023-04-24T12:32:45.101Z,11.80
2023-04-24T12:35:13.491Z,11.80
2023-04-24T12:37:47.410Z,11.80
2023-04-24T12:40:16.697Z,11.70
2023-04-24T12:42:46.155Z,11.60
2023-04-24T12:45:15.220Z,11.60
2023-04-24T12:47:44.857Z,11.50
2023-04-24T12:50:14.176Z,11.50
2023-04-24T12:52:44.387Z,11.40
2023-04-24T12:55:13.105Z,11.20
2023-04-24T12:57:42.237Z,11.20
2023-04-24T13:00:11.279Z,11.00
2023-04-24T13:02:39.709Z,10.90
2023-04-24T13:05:08.349Z,10.80
2023-04-24T13:07:36.521Z,10.90
2023-04-24T13:10:06.856Z,10.90
2023-04-24T13:12:35.080Z,11.00
2023-04-24T13:15:03.259Z,10.90
2023-04-24T13:17:31.534Z,10.90
2023-04-24T13:20:01.515Z,10.80
2023-04-24T13:22:29.739Z,10.70
2023-04-24T13:24:58.307Z,10.60
2023-04-24T13:27:27.723Z,10.50
2023-04-24T13:29:56.129Z,10.40
2023-04-24T13:32:24.303Z,10.30
2023-04-24T13:34:52.364Z,10.10
2023-04-24T13:37:20.869Z,10.00
2023-04-24T13:39:48.850Z,9.90
2023-04-24T13:42:16.871Z,9.80
2023-04-24T13:44:46.595Z,9.80
2023-04-24T13:47:14.690Z,9.70
2023-04-24T13:49:42.715Z,9.70
2023-04-24T13:52:11.743Z,9.60
2023-04-24T13:54:39.832Z,9.50
2023-04-24T13:57:08.198Z,9.50
2023-04-24T13:59:36.538Z,9.50
2023-04-24T14:02:06.012Z,9.30
2023-04-24T14:04:34.299Z,9.30
2023-04-24T14:07:02.709Z,9.30
2023-04-24T14:09:30.721Z,9.30
2023-04-24T14:11:58.782Z,9.30
2023-04-24T14:14:27.638Z,9.30
2023-04-24T14:16:55.650Z,9.30
2023-04-24T14:19:25.021Z,9.30
2023-04-24T14:21:53.500Z,9.30
2023-04-24T14:24:21.553Z,9.30
2023-04-24T14:26:49.618Z,9.30
2023-04-24T14:29:18.520Z,9.30
2023-04-24T14:31:46.594Z,9.20
2023-04-24T14:34:16.080Z,9.10
2023-04-24T14:36:46.111Z,9.00
2023-04-24T14:39:14.176Z,9.00
2023-04-24T14:41:42.190Z,9.00
2023-04-24T14:44:29.049Z,9.00
2023-04-24T14:46:57.360Z,9.00
2023-04-24T14:49:25.724Z,9.00
2023-04-24T14:51:55.241Z,9.00
2023-04-24T14:54:25.129Z,9.00
2023-04-24T14:56:53.325Z,8.90
2023-04-24T14:59:21.904Z,8.90
2023-04-24T15:01:54.813Z,8.90
2023-04-24T15:04:27.626Z,8.80
2023-04-24T15:06:57.505Z,8.80
2023-04-24T15:09:28.309Z,8.80
2023-04-24T15:11:57.511Z,8.80
2023-04-24T15:14:25.662Z,8.80
2023-04-24T15:16:53.884Z,8.80
2023-04-24T15:19:22.064Z,8.90
2023-04-24T15:21:50.142Z,9.00
2023-04-24T15:24:19.706Z,9.00
2023-04-24T15:26:47.772Z,9.00
2023-04-24T15:29:15.871Z,9.00
2023-04-24T15:31:44.049Z,9.00
2023-04-24T15:34:12.209Z,9.00
2023-04-24T15:36:40.257Z,9.10
2023-04-24T15:39:09.767Z,9.10
2023-04-24T15:41:41.343Z,9.10
2023-04-24T15:44:09.576Z,9.10
2023-04-24T15:46:37.890Z,9.10
2023-04-24T15:49:06.307Z,9.10
2023-04-24T15:51:34.503Z,9.10
2023-04-24T15:54:02.656Z,9.10
2023-04-24T15:56:31.633Z,9.10
2023-04-24T15:59:01.341Z,9.10
2023-04-24T16:01:29.604Z,9.10
2023-04-24T16:03:57.758Z,9.10
2023-04-24T16:06:28.275Z,9.10
2023-04-24T16:08:58.875Z,9.10
2023-04-24T16:11:28.109Z,9.10
2023-04-24T16:13:56.351Z,9.20
2023-04-24T16:16:25.877Z,9.20
2023-04-24T16:18:54.441Z,9.20
2023-04-24T16:21:22.687Z,9.20
2023-04-24T16:23:50.973Z,9.20
2023-04-24T16:26:19.046Z,9.10
2023-04-24T16:28:47.442Z,9.10
2023-04-24T16:31:15.725Z,9.10
2023-04-24T16:33:45.149Z,9.10
2023-04-24T16:36:13.858Z,9.10
2023-04-24T16:38:42.169Z,9.20
2023-04-24T16:41:10.199Z,9.20
2023-04-24T16:43:38.470Z,9.20
2023-04-24T16:46:06.643Z,9.20
2023-04-24T16:48:35.045Z,9.10
2023-04-24T16:51:04.605Z,9.10
2023-04-24T16:53:32.748Z,9.10
2023-04-24T16:56:00.914Z,9.00
2023-04-24T16:58:28.993Z,9.00
2023-04-24T17:00:57.768Z,8.90
2023-04-24T17:03:26.073Z,8.90
2023-04-24T17:05:54.513Z,8.90
2023-04-24T17:08:23.931Z,8.90
2023-04-24T17:10:51.942Z,8.90
2023-04-24T17:13:20.113Z,9.00
2023-04-24T17:15:48.170Z,8.90
2023-04-24T17:18:17.682Z,8.90
2023-04-24T17:20:46.005Z,8.90
2023-04-24T17:23:14.024Z,8.90
2023-04-24T17:25:43.452Z,8.90
2023-04-24T17:28:24.073Z,8.90
2023-04-24T17:30:54.557Z,8.90
2023-04-24T17:33:22.755Z,8.90
2023-04-24T17:35:51.346Z,8.90
2023-04-24T17:38:19.688Z,8.80
2023-04-24T17:40:52.934Z,8.80
2023-04-24T17:43:21.312Z,8.70
2023-04-24T17:45:50.462Z,8.60
2023-04-24T17:48:20.194Z,8.60
2023-04-24T17:50:48.254Z,8.60
2023-04-24T17:53:20.808Z,8.60
2023-04-24T17:55:50.543Z,8.60
2023-04-24T17:58:20.488Z,8.60
2023-04-24T18:00:48.601Z,8.50
2023-04-24T18:03:16.711Z,8.50
2023-04-24T18:05:44.842Z,8.50
2023-04-24T18:08:13.011Z,8.40
2023-04-24T18:13:11.970Z,8.30
2023-04-24T18:15:42.568Z,8.30
2023-04-24T18:18:11.065Z,8.30
2023-04-24T18:20:39.450Z,8.30
2023-04-24T18:23:07.576Z,8.30
2023-04-24T18:25:35.892Z,8.30
2023-04-24T18:28:04.012Z,8.30
2023-04-24T18:30:34.667Z,8.30
2023-04-24T18:33:02.890Z,8.20
2023-04-24T18:35:31.080Z,8.30
2023-04-24T18:37:59.158Z,8.30
2023-04-24T18:40:27.192Z,8.30
2023-04-24T18:45:42.778Z,8.20
2023-04-24T18:48:10.806Z,8.20
2023-04-24T18:50:40.622Z,8.10
2023-04-24T18:53:12.593Z,8.10
2023-04-24T18:55:40.942Z,8.10
2023-04-24T18:58:08.994Z,8.00
2023-04-24T19:00:38.652Z,8.00
2023-04-24T19:03:08.788Z,8.00
2023-04-24T19:05:37.325Z,8.00
2023-04-24T19:08:05.353Z,8.10
2023-04-24T19:10:34.358Z,8.00
2023-04-24T19:13:02.701Z,8.00
2023-04-24T19:15:30.977Z,8.10
2023-04-24T19:17:59.027Z,8.10
2023-04-24T19:20:28.809Z,8.00
2023-04-24T19:22:57.298Z,8.00
2023-04-24T19:25:25.624Z,8.00
2023-04-24T19:27:53.713Z,8.00
2023-04-24T19:30:21.828Z,8.00
2023-04-24T19:32:49.912Z,8.00
2023-04-24T19:35:18.220Z,8.00
2023-04-24T19:37:47.761Z,8.00
2023-04-24T19:40:15.760Z,8.00
2023-04-24T19:42:44.735Z,8.00
2023-04-24T19:45:13.978Z,8.00
2023-04-24T19:47:42.202Z,8.00
2023-04-24T19:50:10.483Z,7.90
2023-04-24T19:52:38.724Z,7.90
2023-04-24T19:55:09.249Z,7.80
2023-04-24T19:57:42.690Z,7.80
2023-04-24T20:00:18.831Z,7.80
2023-04-24T20:02:56.959Z,7.90
2023-04-24T20:05:25.234Z,7.90
2023-04-24T20:07:53.423Z,7.90
2023-04-24T20:10:22.896Z,7.90
2023-04-24T20:12:51.235Z,7.90
2023-04-24T20:15:19.431Z,8.00
2023-04-24T20:17:47.603Z,8.00
2023-04-24T20:20:15.786Z,7.90
2023-04-24T20:22:43.884Z,7.90
2023-04-24T20:25:13.359Z,7.90
2023-04-24T20:27:42.827Z,7.90
2023-04-24T20:30:13.176Z,8.00
2023-04-24T20:32:42.045Z,8.00
2023-04-24T20:35:11.902Z,8.00
2023-04-24T20:37:40.471Z,8.00
2023-04-24T20:40:09.882Z,8.00
2023-04-24T20:42:38.326Z,8.10
2023-04-24T20:45:09.013Z,8.20
2023-04-24T20:47:37.401Z,8.10
2023-04-24T20:50:06.430Z,8.10
2023-04-24T20:52:34.604Z,8.10
2023-04-24T20:55:03.606Z,8.10
2023-04-24T20:57:32.332Z,8.10
2023-04-24T21:00:00.379Z,8.10
2023-04-24T21:02:31.065Z,8.10
2023-04-24T21:04:59.168Z,8.10
2023-04-24T21:07:27.402Z,8.10
2023-04-24T21:09:55.683Z,8.10
2023-04-24T21:12:23.705Z,8.10
2023-04-24T21:14:51.770Z,8.10
2023-04-24T21:17:20.265Z,8.10
2023-04-24T21:19:49.631Z,8.10
2023-04-24T21:22:17.657Z,8.10
2023-04-24T21:24:46.320Z,8.10
2023-04-24T21:27:14.410Z,8.10
2023-04-24T21:29:43.881Z,8.10
2023-04-24T21:32:15.089Z,8.00
2023-04-24T21:34:43.163Z,8.10
2023-04-24T21:37:13.146Z,8.10
2023-04-24T21:39:41.585Z,8.10
2023-04-24T21:42:09.770Z,8.10
2023-04-24T21:44:37.805Z,8.10
2023-04-24T21:47:06.295Z,8.10
2023-04-24T21:49:34.313Z,8.10
2023-04-24T21:52:02.348Z,8.10
2023-04-24T21:54:32.015Z,8.10
2023-04-24T21:57:01.709Z,8.00
2023-04-24T21:59:30.169Z,8.10
2023-04-24T22:01:58.787Z,8.00
2023-04-24T22:04:27.552Z,8.00
2023-04-24T22:06:56.034Z,8.10
2023-04-24T22:09:24.355Z,8.10
2023-04-24T22:11:53.946Z,8.00
2023-04-24T22:14:21.967Z,8.10
2023-04-24T22:16:50.407Z,8.10
2023-04-24T22:19:18.416Z,8.00
2023-04-24T22:21:46.495Z,8.00
2023-04-24T22:24:14.836Z,8.00
2023-04-24T22:26:42.865Z,8.10
2023-04-24T22:29:12.829Z,8.10
2023-04-24T22:31:41.712Z,8.10
2023-04-24T22:34:10.202Z,8.10
2023-04-24T22:36:38.314Z,8.10
2023-04-24T22:39:06.380Z,8.20
2023-04-24T22:41:34.458Z,8.10
2023-04-24T22:44:02.771Z,8.10
2023-04-24T22:46:32.245Z,8.10
2023-04-24T22:49:00.329Z,8.10
2023-04-24T22:51:29.762Z,8.10
2023-04-24T22:53:57.865Z,8.10
2023-04-24T22:56:26.037Z,8.10
2023-04-24T22:58:54.326Z,8.10
2023-04-24T23:01:22.525Z,8.10
2023-04-24T23:03:52.499Z,8.10
2023-04-24T23:06:21.582Z,8.10
2023-04-24T23:08:49.650Z,8.10
2023-04-24T23:11:18.283Z,8.10
2023-04-24T23:13:46.439Z,8.10
2023-04-24T23:16:14.832Z,8.10
2023-04-24T23:18:43.059Z,8.10
2023-04-24T23:21:12.733Z,8.10
2023-04-24T23:23:41.127Z,8.10
2023-04-24T23:26:09.335Z,8.10
2023-04-24T23:28:38.626Z,8.10
2023-04-24T23:31:06.941Z,8.10
2023-04-24T23:33:35.091Z,8.10
2023-04-24T23:36:03.293Z,8.10
2023-04-24T23:38:43.212Z,8.10
2023-04-24T23:41:19.231Z,8.10
2023-04-24T23:43:47.422Z,8.10
2023-04-24T23:46:15.762Z,8.20
2023-04-24T23:48:43.991Z,8.10
2023-04-24T23:51:12.208Z,8.20
2023-04-24T23:53:42.165Z,8.10
2023-04-24T23:56:10.201Z,8.10
2023-04-24T23:58:38.347Z,8.10
